sensor_id;sensor_type;location;lat;lon;timestamp;temperature;humidity
19622;DHT22;9958;33.196;-97.114;2023-04-23T00:02:09;15.60;64.60
19622;DHT22;9958;33.196;-97.114;2023-04-23T00:04:38;15.50;64.50
19622;DHT22;9958;33.196;-97.114;2023-04-23T00:07:09;15.40;64.30
19622;DHT22;9958;33.196;-97.114;2023-04-23T00:09:39;15.30;63.80
19622;DHT22;9958;33.196;-97.114;2023-04-23T00:12:09;15.30;64.20
19622;DHT22;9958;33.196;-97.114;2023-04-23T00:14:37;15.20;64.40
19622;DHT22;9958;33.196;-97.114;2023-04-23T00:17:06;15.20;64.70
19622;DHT22;9958;33.196;-97.114;2023-04-23T00:19:34;15.10;64.30
19622;DHT22;9958;33.196;-97.114;2023-04-23T00:22:02;15.00;64.10
19622;DHT22;9958;33.196;-97.114;2023-04-23T00:24:33;15.00;64.80
19622;DHT22;9958;33.196;-97.114;2023-04-23T00:27:04;15.00;64.90
19622;DHT22;9958;33.196;-97.114;2023-04-23T00:29:32;14.90;64.40
19622;DHT22;9958;33.196;-97.114;2023-04-23T00:32:01;14.80;64.70
19622;DHT22;9958;33.196;-97.114;2023-04-23T00:34:29;14.80;65.00
19622;DHT22;9958;33.196;-97.114;2023-04-23T00:36:58;14.80;65.10
19622;DHT22;9958;33.196;-97.114;2023-04-23T00:39:26;14.80;65.00
19622;DHT22;9958;33.196;-97.114;2023-04-23T00:41:56;14.70;64.00
19622;DHT22;9958;33.196;-97.114;2023-04-23T00:44:25;14.60;64.30
19622;DHT22;9958;33.196;-97.114;2023-04-23T00:46:54;14.60;64.50
19622;DHT22;9958;33.196;-97.114;2023-04-23T00:49:23;14.60;64.60
19622;DHT22;9958;33.196;-97.114;2023-04-23T00:51:52;14.50;65.10
19622;DHT22;9958;33.196;-97.114;2023-04-23T00:54:20;14.50;65.00
19622;DHT22;9958;33.196;-97.114;2023-04-23T00:56:48;14.40;64.60
19622;DHT22;9958;33.196;-97.114;2023-04-23T00:59:19;14.50;65.10
19622;DHT22;9958;33.196;-97.114;2023-04-23T01:01:47;14.40;64.30
19622;DHT22;9958;33.196;-97.114;2023-04-23T01:04:17;14.30;64.50
19622;DHT22;9958;33.196;-97.114;2023-04-23T01:06:46;14.30;65.10
19622;DHT22;9958;33.196;-97.114;2023-04-23T01:09:15;14.30;64.80
19622;DHT22;9958;33.196;-97.114;2023-04-23T01:11:44;14.20;64.70
19622;DHT22;9958;33.196;-97.114;2023-04-23T01:14:14;14.20;64.80
19622;DHT22;9958;33.196;-97.114;2023-04-23T01:16:44;14.10;65.10
19622;DHT22;9958;33.196;-97.114;2023-04-23T01:19:12;14.00;65.70
19622;DHT22;9958;33.196;-97.114;2023-04-23T01:21:41;14.00;66.90
19622;DHT22;9958;33.196;-97.114;2023-04-23T01:24:11;14.00;67.30
19622;DHT22;9958;33.196;-97.114;2023-04-23T01:26:40;13.90;67.90
19622;DHT22;9958;33.196;-97.114;2023-04-23T01:29:08;13.90;69.00
19622;DHT22;9958;33.196;-97.114;2023-04-23T01:31:37;13.80;69.20
19622;DHT22;9958;33.196;-97.114;2023-04-23T01:34:05;13.80;69.60
19622;DHT22;9958;33.196;-97.114;2023-04-23T01:36:35;13.80;70.60
19622;DHT22;9958;33.196;-97.114;2023-04-23T01:39:03;13.80;71.40
19622;DHT22;9958;33.196;-97.114;2023-04-23T01:41:34;13.80;72.60
19622;DHT22;9958;33.196;-97.114;2023-04-23T01:44:02;13.60;73.50
19622;DHT22;9958;33.196;-97.114;2023-04-23T01:46:31;13.60;73.70
19622;DHT22;9958;33.196;-97.114;2023-04-23T01:48:59;13.50;73.40
19622;DHT22;9958;33.196;-97.114;2023-04-23T01:51:29;13.50;73.20
19622;DHT22;9958;33.196;-97.114;2023-04-23T01:53:57;13.40;73.00
19622;DHT22;9958;33.196;-97.114;2023-04-23T01:56:27;13.40;72.80
19622;DHT22;9958;33.196;-97.114;2023-04-23T01:58:57;13.40;72.90
19622;DHT22;9958;33.196;-97.114;2023-04-23T02:01:25;13.30;73.10
19622;DHT22;9958;33.196;-97.114;2023-04-23T02:04:07;13.40;73.50
19622;DHT22;9958;33.196;-97.114;2023-04-23T02:06:36;13.30;73.20
19622;DHT22;9958;33.196;-97.114;2023-04-23T02:09:04;13.20;73.20
19622;DHT22;9958;33.196;-97.114;2023-04-23T02:11:32;13.20;73.20
19622;DHT22;9958;33.196;-97.114;2023-04-23T02:14:03;13.20;72.90
19622;DHT22;9958;33.196;-97.114;2023-04-23T02:16:31;13.20;73.10
19622;DHT22;9958;33.196;-97.114;2023-04-23T02:19:00;13.20;73.10
19622;DHT22;9958;33.196;-97.114;2023-04-23T02:21:28;13.20;73.60
19622;DHT22;9958;33.196;-97.114;2023-04-23T02:23:57;13.20;73.20
19622;DHT22;9958;33.196;-97.114;2023-04-23T02:26:25;13.10;73.00
19622;DHT22;9958;33.196;-97.114;2023-04-23T02:28:54;13.10;73.10
19622;DHT22;9958;33.196;-97.114;2023-04-23T02:31:24;13.10;73.50
19622;DHT22;9958;33.196;-97.114;2023-04-23T02:33:52;13.00;73.20
19622;DHT22;9958;33.196;-97.114;2023-04-23T02:36:21;13.00;73.40
19622;DHT22;9958;33.196;-97.114;2023-04-23T02:38:49;13.00;73.70
19622;DHT22;9958;33.196;-97.114;2023-04-23T02:41:17;12.90;73.60
19622;DHT22;9958;33.196;-97.114;2023-04-23T02:43:46;12.90;73.60
19622;DHT22;9958;33.196;-97.114;2023-04-23T02:46:15;12.90;73.80
19622;DHT22;9958;33.196;-97.114;2023-04-23T02:48:45;12.90;73.90
19622;DHT22;9958;33.196;-97.114;2023-04-23T02:51:13;12.80;73.90
19622;DHT22;9958;33.196;-97.114;2023-04-23T02:53:41;12.80;73.90
19622;DHT22;9958;33.196;-97.114;2023-04-23T02:56:10;12.80;73.90
19622;DHT22;9958;33.196;-97.114;2023-04-23T02:58:38;12.70;73.50
19622;DHT22;9958;33.196;-97.114;2023-04-23T03:01:07;12.70;73.70
19622;DHT22;9958;33.196;-97.114;2023-04-23T03:03:35;12.70;73.70
19622;DHT22;9958;33.196;-97.114;2023-04-23T03:06:06;12.70;73.60
19622;DHT22;9958;33.196;-97.114;2023-04-23T03:08:35;12.70;73.80
19622;DHT22;9958;33.196;-97.114;2023-04-23T03:11:03;12.70;73.90
19622;DHT22;9958;33.196;-97.114;2023-04-23T03:13:31;12.70;74.10
19622;DHT22;9958;33.196;-97.114;2023-04-23T03:15:59;12.80;74.00
19622;DHT22;9958;33.196;-97.114;2023-04-23T03:18:28;12.70;73.70
19622;DHT22;9958;33.196;-97.114;2023-04-23T03:20:56;12.70;73.90
19622;DHT22;9958;33.196;-97.114;2023-04-23T03:23:26;12.70;74.20
19622;DHT22;9958;33.196;-97.114;2023-04-23T03:25:54;12.70;74.10
19622;DHT22;9958;33.196;-97.114;2023-04-23T03:28:23;12.70;73.90
19622;DHT22;9958;33.196;-97.114;2023-04-23T03:30:51;12.70;73.90
19622;DHT22;9958;33.196;-97.114;2023-04-23T03:33:19;12.60;73.50
19622;DHT22;9958;33.196;-97.114;2023-04-23T03:35:48;12.70;74.00
19622;DHT22;9958;33.196;-97.114;2023-04-23T03:38:16;12.70;73.80
19622;DHT22;9958;33.196;-97.114;2023-04-23T03:40:46;12.60;72.70
19622;DHT22;9958;33.196;-97.114;2023-04-23T03:43:14;12.50;72.50
19622;DHT22;9958;33.196;-97.114;2023-04-23T03:45:43;12.60;72.70
19622;DHT22;9958;33.196;-97.114;2023-04-23T03:48:11;12.50;72.60
19622;DHT22;9958;33.196;-97.114;2023-04-23T03:50:39;12.50;72.90
19622;DHT22;9958;33.196;-97.114;2023-04-23T03:53:08;12.50;73.00
19622;DHT22;9958;33.196;-97.114;2023-04-23T03:55:36;12.40;73.00
19622;DHT22;9958;33.196;-97.114;2023-04-23T03:58:06;12.40;73.60
19622;DHT22;9958;33.196;-97.114;2023-04-23T04:00:35;12.40;73.40
19622;DHT22;9958;33.196;-97.114;2023-04-23T04:03:03;12.30;73.70
19622;DHT22;9958;33.196;-97.114;2023-04-23T04:05:31;12.30;73.90
19622;DHT22;9958;33.196;-97.114;2023-04-23T04:08:00;12.30;74.60
19622;DHT22;9958;33.196;-97.114;2023-04-23T04:10:30;12.20;74.40
19622;DHT22;9958;33.196;-97.114;2023-04-23T04:12:58;12.20;74.90
19622;DHT22;9958;33.196;-97.114;2023-04-23T04:15:28;12.20;74.90
19622;DHT22;9958;33.196;-97.114;2023-04-23T04:17:57;12.20;75.00
19622;DHT22;9958;33.196;-97.114;2023-04-23T04:20:26;12.20;75.50
19622;DHT22;9958;33.196;-97.114;2023-04-23T04:22:55;12.20;75.90
19622;DHT22;9958;33.196;-97.114;2023-04-23T04:25:23;12.20;76.30
19622;DHT22;9958;33.196;-97.114;2023-04-23T04:27:54;12.20;76.20
19622;DHT22;9958;33.196;-97.114;2023-04-23T04:30:23;12.20;76.70
19622;DHT22;9958;33.196;-97.114;2023-04-23T04:32:53;12.20;76.70
19622;DHT22;9958;33.196;-97.114;2023-04-23T04:35:22;12.20;77.10
19622;DHT22;9958;33.196;-97.114;2023-04-23T04:37:50;12.20;78.00
19622;DHT22;9958;33.196;-97.114;2023-04-23T04:40:19;12.10;78.20
19622;DHT22;9958;33.196;-97.114;2023-04-23T04:42:47;12.10;78.80
19622;DHT22;9958;33.196;-97.114;2023-04-23T04:45:16;12.10;79.10
19622;DHT22;9958;33.196;-97.114;2023-04-23T04:47:45;12.00;79.50
19622;DHT22;9958;33.196;-97.114;2023-04-23T04:50:14;12.00;80.40
19622;DHT22;9958;33.196;-97.114;2023-04-23T04:52:43;12.00;80.40
19622;DHT22;9958;33.196;-97.114;2023-04-23T04:55:11;11.90;80.40
19622;DHT22;9958;33.196;-97.114;2023-04-23T04:57:39;11.90;81.10
19622;DHT22;9958;33.196;-97.114;2023-04-23T05:00:22;11.90;81.70
19622;DHT22;9958;33.196;-97.114;2023-04-23T05:02:53;11.80;82.00
19622;DHT22;9958;33.196;-97.114;2023-04-23T05:05:24;11.80;82.70
19622;DHT22;9958;33.196;-97.114;2023-04-23T05:07:53;11.80;83.20
19622;DHT22;9958;33.196;-97.114;2023-04-23T05:10:24;11.80;83.80
19622;DHT22;9958;33.196;-97.114;2023-04-23T05:12:53;11.70;83.80
19622;DHT22;9958;33.196;-97.114;2023-04-23T05:15:21;11.80;84.20
19622;DHT22;9958;33.196;-97.114;2023-04-23T05:17:49;11.70;84.50
19622;DHT22;9958;33.196;-97.114;2023-04-23T05:20:19;11.80;84.80
19622;DHT22;9958;33.196;-97.114;2023-04-23T05:22:49;11.70;85.00
19622;DHT22;9958;33.196;-97.114;2023-04-23T05:25:18;11.70;85.20
19622;DHT22;9958;33.196;-97.114;2023-04-23T05:27:46;11.70;86.00
19622;DHT22;9958;33.196;-97.114;2023-04-23T05:30:14;11.70;86.90
19622;DHT22;9958;33.196;-97.114;2023-04-23T05:32:43;11.60;87.50
19622;DHT22;9958;33.196;-97.114;2023-04-23T05:35:11;11.60;87.70
19622;DHT22;9958;33.196;-97.114;2023-04-23T05:37:39;11.60;88.00
19622;DHT22;9958;33.196;-97.114;2023-04-23T05:40:10;11.60;89.40
19622;DHT22;9958;33.196;-97.114;2023-04-23T05:42:38;11.50;89.60
19622;DHT22;9958;33.196;-97.114;2023-04-23T05:45:08;11.60;90.00
19622;DHT22;9958;33.196;-97.114;2023-04-23T05:47:36;11.50;90.40
19622;DHT22;9958;33.196;-97.114;2023-04-23T05:50:06;11.40;90.60
19622;DHT22;9958;33.196;-97.114;2023-04-23T05:52:34;11.40;90.80
19622;DHT22;9958;33.196;-97.114;2023-04-23T05:55:03;11.30;91.20
19622;DHT22;9958;33.196;-97.114;2023-04-23T05:57:33;11.30;91.30
19622;DHT22;9958;33.196;-97.114;2023-04-23T06:00:01;11.20;91.60
19622;DHT22;9958;33.196;-97.114;2023-04-23T06:02:30;11.20;91.80
19622;DHT22;9958;33.196;-97.114;2023-04-23T06:04:59;11.10;92.10
19622;DHT22;9958;33.196;-97.114;2023-04-23T06:07:28;11.10;92.50
19622;DHT22;9958;33.196;-97.114;2023-04-23T06:09:56;11.10;92.80
19622;DHT22;9958;33.196;-97.114;2023-04-23T06:12:24;11.00;93.00
19622;DHT22;9958;33.196;-97.114;2023-04-23T06:14:54;11.00;93.20
19622;DHT22;9958;33.196;-97.114;2023-04-23T06:17:23;11.00;93.20
19622;DHT22;9958;33.196;-97.114;2023-04-23T06:19:51;10.90;93.50
19622;DHT22;9958;33.196;-97.114;2023-04-23T06:22:19;10.90;93.50
19622;DHT22;9958;33.196;-97.114;2023-04-23T06:24:47;10.90;93.70
19622;DHT22;9958;33.196;-97.114;2023-04-23T06:27:16;10.80;94.00
19622;DHT22;9958;33.196;-97.114;2023-04-23T06:29:44;10.80;94.20
19622;DHT22;9958;33.196;-97.114;2023-04-23T06:32:14;10.70;94.00
19622;DHT22;9958;33.196;-97.114;2023-04-23T06:34:42;10.70;94.10
19622;DHT22;9958;33.196;-97.114;2023-04-23T06:37:12;10.70;94.10
19622;DHT22;9958;33.196;-97.114;2023-04-23T06:39:40;10.60;94.00
19622;DHT22;9958;33.196;-97.114;2023-04-23T06:42:08;10.60;94.00
19622;DHT22;9958;33.196;-97.114;2023-04-23T06:44:37;10.60;94.20
19622;DHT22;9958;33.196;-97.114;2023-04-23T06:47:05;10.60;94.40
19622;DHT22;9958;33.196;-97.114;2023-04-23T06:49:35;10.60;94.80
19622;DHT22;9958;33.196;-97.114;2023-04-23T06:52:03;10.60;95.00
19622;DHT22;9958;33.196;-97.114;2023-04-23T06:54:31;10.50;94.80
19622;DHT22;9958;33.196;-97.114;2023-04-23T06:57:00;10.50;94.60
19622;DHT22;9958;33.196;-97.114;2023-04-23T06:59:28;10.40;94.50
19622;DHT22;9958;33.196;-97.114;2023-04-23T07:01:56;10.40;94.60
19622;DHT22;9958;33.196;-97.114;2023-04-23T07:04:25;10.40;94.80
19622;DHT22;9958;33.196;-97.114;2023-04-23T07:06:55;10.40;94.60
19622;DHT22;9958;33.196;-97.114;2023-04-23T07:09:23;10.30;94.80
19622;DHT22;9958;33.196;-97.114;2023-04-23T07:11:51;10.30;94.90
19622;DHT22;9958;33.196;-97.114;2023-04-23T07:14:20;10.30;95.00
19622;DHT22;9958;33.196;-97.114;2023-04-23T07:16:48;10.40;95.10
19622;DHT22;9958;33.196;-97.114;2023-04-23T07:19:17;10.30;95.20
19622;DHT22;9958;33.196;-97.114;2023-04-23T07:21:45;10.40;95.20
19622;DHT22;9958;33.196;-97.114;2023-04-23T07:24:15;10.40;95.70
19622;DHT22;9958;33.196;-97.114;2023-04-23T07:26:44;10.40;95.40
19622;DHT22;9958;33.196;-97.114;2023-04-23T07:29:12;10.40;95.80
19622;DHT22;9958;33.196;-97.114;2023-04-23T07:31:41;10.30;96.00
19622;DHT22;9958;33.196;-97.114;2023-04-23T07:34:09;10.30;96.50
19622;DHT22;9958;33.196;-97.114;2023-04-23T07:36:38;10.30;96.60
19622;DHT22;9958;33.196;-97.114;2023-04-23T07:39:06;10.30;97.10
19622;DHT22;9958;33.196;-97.114;2023-04-23T07:41:36;10.30;97.50
19622;DHT22;9958;33.196;-97.114;2023-04-23T07:44:04;10.20;98.10
19622;DHT22;9958;33.196;-97.114;2023-04-23T07:46:33;10.30;98.50
19622;DHT22;9958;33.196;-97.114;2023-04-23T07:49:01;10.20;99.60
19622;DHT22;9958;33.196;-97.114;2023-04-23T07:51:30;10.20;99.90
19622;DHT22;9958;33.196;-97.114;2023-04-23T07:53:58;10.10;99.90
19622;DHT22;9958;33.196;-97.114;2023-04-23T07:56:26;9.90;99.90
19622;DHT22;9958;33.196;-97.114;2023-04-23T07:58:59;10.00;99.90
19622;DHT22;9958;33.196;-97.114;2023-04-23T08:01:27;9.90;99.90
19622;DHT22;9958;33.196;-97.114;2023-04-23T08:03:56;9.90;99.90
19622;DHT22;9958;33.196;-97.114;2023-04-23T08:06:25;9.80;99.90
19622;DHT22;9958;33.196;-97.114;2023-04-23T08:08:55;9.80;99.90
19622;DHT22;9958;33.196;-97.114;2023-04-23T08:11:23;9.70;99.90
19622;DHT22;9958;33.196;-97.114;2023-04-23T08:13:51;9.70;99.90
19622;DHT22;9958;33.196;-97.114;2023-04-23T08:16:21;9.70;99.90
19622;DHT22;9958;33.196;-97.114;2023-04-23T08:18:50;9.60;99.90
19622;DHT22;9958;33.196;-97.114;2023-04-23T08:21:18;9.50;99.90
19622;DHT22;9958;33.196;-97.114;2023-04-23T08:23:47;9.50;99.90
19622;DHT22;9958;33.196;-97.114;2023-04-23T08:26:16;9.50;99.90
19622;DHT22;9958;33.196;-97.114;2023-04-23T08:28:46;9.50;99.90
19622;DHT22;9958;33.196;-97.114;2023-04-23T08:31:14;9.40;99.90
19622;DHT22;9958;33.196;-97.114;2023-04-23T08:33:44;9.50;99.90
19622;DHT22;9958;33.196;-97.114;2023-04-23T08:36:12;9.40;99.90
19622;DHT22;9958;33.196;-97.114;2023-04-23T08:38:41;9.40;99.90
19622;DHT22;9958;33.196;-97.114;2023-04-23T08:41:10;9.30;99.90
19622;DHT22;9958;33.196;-97.114;2023-04-23T08:43:45;9.30;99.90
19622;DHT22;9958;33.196;-97.114;2023-04-23T08:46:14;9.30;99.90
19622;DHT22;9958;33.196;-97.114;2023-04-23T08:48:44;9.30;99.90
19622;DHT22;9958;33.196;-97.114;2023-04-23T08:51:16;9.20;99.90
19622;DHT22;9958;33.196;-97.114;2023-04-23T08:53:49;9.30;99.90
19622;DHT22;9958;33.196;-97.114;2023-04-23T08:56:19;9.20;99.90
19622;DHT22;9958;33.196;-97.114;2023-04-23T08:58:49;9.20;99.90
19622;DHT22;9958;33.196;-97.114;2023-04-23T09:01:18;9.20;99.90
19622;DHT22;9958;33.196;-97.114;2023-04-23T09:03:48;9.10;99.90
19622;DHT22;9958;33.196;-97.114;2023-04-23T09:06:17;9.10;99.90
19622;DHT22;9958;33.196;-97.114;2023-04-23T09:08:46;9.00;99.90
19622;DHT22;9958;33.196;-97.114;2023-04-23T09:11:15;9.00;99.90
19622;DHT22;9958;33.196;-97.114;2023-04-23T09:13:44;8.90;99.90
19622;DHT22;9958;33.196;-97.114;2023-04-23T09:16:12;8.90;99.90
19622;DHT22;9958;33.196;-97.114;2023-04-23T09:18:41;8.90;99.90
19622;DHT22;9958;33.196;-97.114;2023-04-23T09:21:12;8.90;99.90
19622;DHT22;9958;33.196;-97.114;2023-04-23T09:23:41;8.90;99.90
19622;DHT22;9958;33.196;-97.114;2023-04-23T09:26:18;8.90;99.90
19622;DHT22;9958;33.196;-97.114;2023-04-23T09:28:48;8.90;99.90
19622;DHT22;9958;33.196;-97.114;2023-04-23T09:31:20;8.90;99.90
19622;DHT22;9958;33.196;-97.114;2023-04-23T09:33:52;8.90;99.90
19622;DHT22;9958;33.196;-97.114;2023-04-23T09:36:23;8.90;99.90
19622;DHT22;9958;33.196;-97.114;2023-04-23T09:38:55;9.00;99.90
19622;DHT22;9958;33.196;-97.114;2023-04-23T09:41:24;9.00;99.90
19622;DHT22;9958;33.196;-97.114;2023-04-23T09:43:53;8.90;99.90
19622;DHT22;9958;33.196;-97.114;2023-04-23T09:46:35;8.90;99.90
19622;DHT22;9958;33.196;-97.114;2023-04-23T09:49:04;8.90;99.90
19622;DHT22;9958;33.196;-97.114;2023-04-23T09:51:37;9.00;99.90
19622;DHT22;9958;33.196;-97.114;2023-04-23T09:54:10;9.00;99.90
19622;DHT22;9958;33.196;-97.114;2023-04-23T09:56:39;9.00;99.90
19622;DHT22;9958;33.196;-97.114;2023-04-23T09:59:21;9.00;99.90
19622;DHT22;9958;33.196;-97.114;2023-04-23T10:01:49;9.00;99.90
19622;DHT22;9958;33.196;-97.114;2023-04-23T10:04:18;9.10;99.90
19622;DHT22;9958;33.196;-97.114;2023-04-23T10:06:53;9.10;99.90
19622;DHT22;9958;33.196;-97.114;2023-04-23T10:09:22;9.10;99.90
19622;DHT22;9958;33.196;-97.114;2023-04-23T10:11:51;9.10;99.90
19622;DHT22;9958;33.196;-97.114;2023-04-23T10:14:20;9.10;99.90
19622;DHT22;9958;33.196;-97.114;2023-04-23T10:16:51;9.10;99.90
19622;DHT22;9958;33.196;-97.114;2023-04-23T10:19:21;9.10;99.90
19622;DHT22;9958;33.196;-97.114;2023-04-23T10:21:53;9.10;99.90
19622;DHT22;9958;33.196;-97.114;2023-04-23T10:24:23;9.10;99.90
19622;DHT22;9958;33.196;-97.114;2023-04-23T10:26:56;9.10;99.90
19622;DHT22;9958;33.196;-97.114;2023-04-23T10:29:27;9.10;99.90
19622;DHT22;9958;33.196;-97.114;2023-04-23T10:31:56;9.20;99.90
19622;DHT22;9958;33.196;-97.114;2023-04-23T10:34:25;9.20;99.90
19622;DHT22;9958;33.196;-97.114;2023-04-23T10:36:56;9.20;99.90
19622;DHT22;9958;33.196;-97.114;2023-04-23T10:39:27;9.20;99.90
19622;DHT22;9958;33.196;-97.114;2023-04-23T10:41:57;9.20;99.90
19622;DHT22;9958;33.196;-97.114;2023-04-23T10:44:32;9.10;99.90
19622;DHT22;9958;33.196;-97.114;2023-04-23T10:47:01;9.10;99.90
19622;DHT22;9958;33.196;-97.114;2023-04-23T10:49:31;9.10;99.90
19622;DHT22;9958;33.196;-97.114;2023-04-23T10:52:02;9.10;99.90
19622;DHT22;9958;33.196;-97.114;2023-04-23T10:54:31;9.00;99.90
19622;DHT22;9958;33.196;-97.114;2023-04-23T10:57:00;9.00;99.90
19622;DHT22;9958;33.196;-97.114;2023-04-23T10:59:30;8.90;99.90
19622;DHT22;9958;33.196;-97.114;2023-04-23T11:02:05;8.90;99.90
19622;DHT22;9958;33.196;-97.114;2023-04-23T11:04:35;8.90;99.90
19622;DHT22;9958;33.196;-97.114;2023-04-23T11:07:08;8.90;99.90
19622;DHT22;9958;33.196;-97.114;2023-04-23T11:09:39;8.90;99.90
19622;DHT22;9958;33.196;-97.114;2023-04-23T11:12:09;8.90;99.90
19622;DHT22;9958;33.196;-97.114;2023-04-23T11:14:45;8.90;99.90
19622;DHT22;9958;33.196;-97.114;2023-04-23T11:17:15;8.90;99.90
19622;DHT22;9958;33.196;-97.114;2023-04-23T11:20:08;8.90;99.90
19622;DHT22;9958;33.196;-97.114;2023-04-23T11:22:42;8.90;99.90
19622;DHT22;9958;33.196;-97.114;2023-04-23T11:25:12;8.90;99.90
19622;DHT22;9958;33.196;-97.114;2023-04-23T11:27:42;9.00;99.90
19622;DHT22;9958;33.196;-97.114;2023-04-23T11:30:12;9.00;99.90
19622;DHT22;9958;33.196;-97.114;2023-04-23T11:32:44;9.00;99.90
19622;DHT22;9958;33.196;-97.114;2023-04-23T11:35:14;9.00;99.90
19622;DHT22;9958;33.196;-97.114;2023-04-23T11:37:45;9.00;99.90
19622;DHT22;9958;33.196;-97.114;2023-04-23T11:40:16;8.90;99.90
19622;DHT22;9958;33.196;-97.114;2023-04-23T11:42:46;8.90;99.90
19622;DHT22;9958;33.196;-97.114;2023-04-23T11:45:16;8.90;99.90
19622;DHT22;9958;33.196;-97.114;2023-04-23T11:47:45;8.90;99.90
19622;DHT22;9958;33.196;-97.114;2023-04-23T11:50:17;8.90;99.90
19622;DHT22;9958;33.196;-97.114;2023-04-23T11:52:47;8.90;99.90
19622;DHT22;9958;33.196;-97.114;2023-04-23T11:55:16;9.00;99.90
19622;DHT22;9958;33.196;-97.114;2023-04-23T11:57:45;9.00;99.90
19622;DHT22;9958;33.196;-97.114;2023-04-23T12:00:16;9.00;99.90
19622;DHT22;9958;33.196;-97.114;2023-04-23T12:02:55;9.00;99.90
19622;DHT22;9958;33.196;-97.114;2023-04-23T12:05:28;8.90;99.90
19622;DHT22;9958;33.196;-97.114;2023-04-23T12:08:08;8.90;99.90
19622;DHT22;9958;33.196;-97.114;2023-04-23T12:10:47;8.90;99.90
19622;DHT22;9958;33.196;-97.114;2023-04-23T12:13:17;8.90;99.90
19622;DHT22;9958;33.196;-97.114;2023-04-23T12:15:46;8.80;99.90
19622;DHT22;9958;33.196;-97.114;2023-04-23T12:18:15;8.80;99.90
19622;DHT22;9958;33.196;-97.114;2023-04-23T12:20:44;8.80;99.90
19622;DHT22;9958;33.196;-97.114;2023-04-23T12:23:14;8.80;99.90
19622;DHT22;9958;33.196;-97.114;2023-04-23T12:25:42;8.80;99.90
19622;DHT22;9958;33.196;-97.114;2023-04-23T12:28:11;8.80;99.90
19622;DHT22;9958;33.196;-97.114;2023-04-23T12:30:43;8.80;99.90
19622;DHT22;9958;33.196;-97.114;2023-04-23T12:33:11;8.80;99.90
19622;DHT22;9958;33.196;-97.114;2023-04-23T12:35:40;8.80;99.90
19622;DHT22;9958;33.196;-97.114;2023-04-23T12:38:22;8.80;99.90
19622;DHT22;9958;33.196;-97.114;2023-04-23T12:40:50;8.70;99.90
19622;DHT22;9958;33.196;-97.114;2023-04-23T12:43:19;8.70;99.90
19622;DHT22;9958;33.196;-97.114;2023-04-23T12:45:47;8.70;99.90
19622;DHT22;9958;33.196;-97.114;2023-04-23T12:48:16;8.70;99.90
19622;DHT22;9958;33.196;-97.114;2023-04-23T12:50:45;8.60;99.90
19622;DHT22;9958;33.196;-97.114;2023-04-23T12:53:13;8.70;99.90
19622;DHT22;9958;33.196;-97.114;2023-04-23T12:55:43;8.70;99.90
19622;DHT22;9958;33.196;-97.114;2023-04-23T12:58:13;8.80;99.90
19622;DHT22;9958;33.196;-97.114;2023-04-23T13:00:42;8.80;99.90
19622;DHT22;9958;33.196;-97.114;2023-04-23T13:03:10;8.80;99.90
19622;DHT22;9958;33.196;-97.114;2023-04-23T13:05:40;8.80;99.90
19622;DHT22;9958;33.196;-97.114;2023-04-23T13:08:09;8.80;99.90
19622;DHT22;9958;33.196;-97.114;2023-04-23T13:10:37;8.90;99.90
19622;DHT22;9958;33.196;-97.114;2023-04-23T13:13:07;8.90;99.90
19622;DHT22;9958;33.196;-97.114;2023-04-23T13:15:35;8.90;99.90
19622;DHT22;9958;33.196;-97.114;2023-04-23T13:18:04;8.90;99.90
19622;DHT22;9958;33.196;-97.114;2023-04-23T13:20:33;8.80;99.90
19622;DHT22;9958;33.196;-97.114;2023-04-23T13:23:01;8.80;99.90
19622;DHT22;9958;33.196;-97.114;2023-04-23T13:25:29;8.80;99.90
19622;DHT22;9958;33.196;-97.114;2023-04-23T13:27:57;8.90;99.90
19622;DHT22;9958;33.196;-97.114;2023-04-23T13:30:27;8.80;99.90
19622;DHT22;9958;33.196;-97.114;2023-04-23T13:32:56;8.90;99.90
19622;DHT22;9958;33.196;-97.114;2023-04-23T13:35:24;8.80;99.90
19622;DHT22;9958;33.196;-97.114;2023-04-23T13:37:53;8.90;99.90
19622;DHT22;9958;33.196;-97.114;2023-04-23T13:40:21;8.90;99.90
19622;DHT22;9958;33.196;-97.114;2023-04-23T13:42:49;8.90;99.90
19622;DHT22;9958;33.196;-97.114;2023-04-23T13:45:20;8.90;99.90
19622;DHT22;9958;33.196;-97.114;2023-04-23T13:47:50;8.90;99.90
19622;DHT22;9958;33.196;-97.114;2023-04-23T13:50:18;8.90;99.90
19622;DHT22;9958;33.196;-97.114;2023-04-23T13:52:47;8.90;99.90
19622;DHT22;9958;33.196;-97.114;2023-04-23T13:55:15;8.80;99.90
19622;DHT22;9958;33.196;-97.114;2023-04-23T13:57:44;8.80;99.90
19622;DHT22;9958;33.196;-97.114;2023-04-23T14:00:13;8.80;99.90
19622;DHT22;9958;33.196;-97.114;2023-04-23T14:02:41;8.80;99.90
19622;DHT22;9958;33.196;-97.114;2023-04-23T14:05:11;8.80;99.90
19622;DHT22;9958;33.196;-97.114;2023-04-23T14:07:39;8.80;99.90
19622;DHT22;9958;33.196;-97.114;2023-04-23T14:10:08;8.80;99.90
19622;DHT22;9958;33.196;-97.114;2023-04-23T14:12:37;8.80;99.90
19622;DHT22;9958;33.196;-97.114;2023-04-23T14:15:06;8.80;99.90
19622;DHT22;9958;33.196;-97.114;2023-04-23T14:17:35;8.80;99.90
19622;DHT22;9958;33.196;-97.114;2023-04-23T14:20:05;8.80;99.90
19622;DHT22;9958;33.196;-97.114;2023-04-23T14:22:36;8.80;99.90
19622;DHT22;9958;33.196;-97.114;2023-04-23T14:25:08;8.80;99.90
19622;DHT22;9958;33.196;-97.114;2023-04-23T14:27:40;8.90;99.90
19622;DHT22;9958;33.196;-97.114;2023-04-23T14:30:15;8.80;99.90
19622;DHT22;9958;33.196;-97.114;2023-04-23T14:32:43;8.80;99.90
19622;DHT22;9958;33.196;-97.114;2023-04-23T14:35:12;8.80;99.90
19622;DHT22;9958;33.196;-97.114;2023-04-23T14:37:42;8.90;99.90
19622;DHT22;9958;33.196;-97.114;2023-04-23T14:40:11;8.80;99.90
19622;DHT22;9958;33.196;-97.114;2023-04-23T14:42:44;8.80;99.90
19622;DHT22;9958;33.196;-97.114;2023-04-23T14:45:14;8.90;99.90
19622;DHT22;9958;33.196;-97.114;2023-04-23T14:47:44;8.90;99.90
19622;DHT22;9958;33.196;-97.114;2023-04-23T14:50:14;8.90;99.90
19622;DHT22;9958;33.196;-97.114;2023-04-23T14:52:48;8.90;99.90
19622;DHT22;9958;33.196;-97.114;2023-04-23T14:55:17;8.90;99.90
19622;DHT22;9958;33.196;-97.114;2023-04-23T14:57:46;8.90;99.90
19622;DHT22;9958;33.196;-97.114;2023-04-23T15:00:15;8.90;99.90
19622;DHT22;9958;33.196;-97.114;2023-04-23T15:02:44;8.80;99.90
19622;DHT22;9958;33.196;-97.114;2023-04-23T15:05:12;8.80;99.90
19622;DHT22;9958;33.196;-97.114;2023-04-23T15:07:42;8.90;99.90
19622;DHT22;9958;33.196;-97.114;2023-04-23T15:10:12;8.90;99.90
19622;DHT22;9958;33.196;-97.114;2023-04-23T15:12:48;8.90;99.90
19622;DHT22;9958;33.196;-97.114;2023-04-23T15:15:25;9.00;99.90
19622;DHT22;9958;33.196;-97.114;2023-04-23T15:17:53;9.00;99.90
19622;DHT22;9958;33.196;-97.114;2023-04-23T15:20:22;9.10;99.90
19622;DHT22;9958;33.196;-97.114;2023-04-23T15:22:50;9.10;99.90
19622;DHT22;9958;33.196;-97.114;2023-04-23T15:25:20;9.10;99.90
19622;DHT22;9958;33.196;-97.114;2023-04-23T15:27:49;9.10;99.90
19622;DHT22;9958;33.196;-97.114;2023-04-23T15:30:23;9.20;99.90
19622;DHT22;9958;33.196;-97.114;2023-04-23T15:32:52;9.20;99.90
19622;DHT22;9958;33.196;-97.114;2023-04-23T15:35:22;9.10;99.90
19622;DHT22;9958;33.196;-97.114;2023-04-23T15:37:50;9.10;99.90